Main page
METAR-TAF:

METAR-TAF

Airports :

Mannheim City Airport

Mannheim, Germany

latitude: 49-28-21N, longitude: 008-30-56E, elevation: 100 m

Current weather observation

The report was made 36 minutes ago, at 16:20 UTC
Wind 2 kt from variable directions
Temperature 14°C
Humidity 82%
Pressure 1013 hPa
Visibility 10 km or more
no clouds below 1500 m and no cumulonimbus

METAR: EDFM 231620Z VRB02KT CAVOK 14/11 Q1013

Time: 18:56 (16:56 UTC)

Forecast

The report was made 2 hours and 56 minutes ago, at 14:00 UTC
Forecast valid from 23 at 15 UTC to 23 at 21 UTC
Wind 3 kt from variable directions
Visibility 10 km or more
Scattered clouds at a height of 1500 ft
Probability 30% :
Temporary
from 23 at 19 UTC to 23 at 21 UTC
Visibility: 4000 m
mist

TAF: EDFM 231400Z 2315/2321 VRB03KT 9999 SCT015 PROB30 TEMPO 2319/2321 4000 BR

Weather observations and forecasts of more than 4000 airports (METAR and TAF reports).

The available stations are represented by yellow and red dots on the map.

Hover mouse over dot to see the name of the station.

Then click to see weather observations and forecasts.

To change the map : click on the green buttons with a black cross to zoom in, on the green button with a dash to zoom out, or on the green arrows for adjacent maps.


METAR-TAF: